CST,Max TemperatureF,Mean TemperatureF,Min TemperatureF,Max Dew PointF,MeanDew PointF,Min DewpointF,Max Humidity, Mean Humidity, Min Humidity, Max Sea Level PressureIn, Mean Sea Level PressureIn, Min Sea Level PressureIn, Max VisibilityMiles, Mean VisibilityMiles, Min VisibilityMiles, Max Wind SpeedMPH, Mean Wind SpeedMPH, Max Gust SpeedMPH,PrecipitationIn, CloudCover, Events, WindDirDegrees
2012-12-1,62,52,42,54,48,40,100,85,58,29.94,29.85,29.77,10,5,0,16,10,22,0.00,4,Fog,213
2012-12-2,68,52,35,50,40,32,92,70,35,30.04,29.92,29.73,10,9,6,15,6,18,0.00,0,,167
2012-12-3,64,58,52,54,43,30,83,58,29,30.08,29.80,29.61,10,10,9,22,16,31,0.00,0,,301
2012-12-4,62,44,27,31,22,18,78,49,18,30.33,30.27,30.12,10,10,9,12,6,,0.00,0,,307
2012-12-5,60,44,27,27,21,18,75,43,21,30.31,30.15,29.93,10,10,10,22,7,26,0.00,0,,165
2012-12-6,55,48,42,45,37,25,86,67,46,29.94,29.87,29.82,10,9,6,15,10,20,0.00,5,,117
2012-12-7,50,42,34,36,31,26,85,69,57,29.98,29.91,29.84,10,10,8,12,7,,0.00,3,,10
2012-12-8,48,38,28,40,33,23,92,78,58,29.99,29.89,29.81,10,7,3,12,6,,0.00,4,,105
2012-12-9,43,32,19,39,19,6,93,58,38,30.22,30.02,29.83,10,9,4,25,13,36,0.00,6,,330
2012-12-10,36,22,9,3,1,-1,67,43,21,30.22,30.12,30.01,10,10,10,20,12,28,0.00,0,,261
2012-12-11,46,32,17,17,11,2,63,46,28,30.14,30.09,30.01,10,10,9,9,4,,0.00,0,,247
2012-12-12,53,38,24,18,14,12,60,40,21,30.13,30.07,30.01,10,10,10,24,11,32,0.00,0,,179
2012-12-13,57,45,33,26,21,18,59,43,24,30.07,30.03,30.00,10,10,10,17,13,,0.00,0,,174
2012-12-14,54,46,39,45,36,26,90,65,44,30.00,29.79,29.45,10,9,5,30,14,39,0.05,4,Rain,160
2012-12-15,59,47,35,45,39,31,87,70,41,29.72,29.60,29.39,10,10,10,24,15,32,0.00,3,Rain,276
2012-12-16,46,38,30,36,31,28,96,86,52,29.84,29.75,29.67,10,4,0,12,6,,0.00,4,Fog,14
2012-12-17,55,39,23,30,25,20,93,73,25,29.83,29.76,29.63,10,6,0,16,4,18,0.00,1,Fog,260
2012-12-18,61,43,25,28,20,11,88,52,14,29.84,29.74,29.62,10,10,10,16,5,23,0.00,0,,349
2012-12-19,51,40,30,38,31,24,93,72,44,29.76,29.62,29.44,10,7,1,36,16,52,0.02,5,Rain-Snow,31
2012-12-20,36,30,21,27,19,13,93,69,48,30.33,30.08,29.72,10,6,0,33,25,50,0.00,3,Fog-Snow,314
2012-12-21,50,31,12,24,18,9,88,63,36,30.34,30.27,30.17,10,10,10,7,1,,0.00,0,,142
2012-12-22,57,40,23,27,20,13,76,53,21,30.13,30.01,29.92,10,10,10,12,5,,0.00,0,,228
2012-12-23,32,26,19,24,19,16,93,79,64,30.05,29.98,29.93,10,6,2,15,9,,0.00,2,,356
2012-12-24,28,23,18,14,12,9,81,67,51,30.14,30.09,30.03,10,9,7,16,10,22,0.00,1,,21
2012-12-25,19,16,10,12,8,3,77,66,50,30.35,30.23,30.09,10,10,9,30,16,44,0.00,6,,18
2012-12-26,28,17,6,9,5,2,83,63,39,30.36,30.25,30.11,10,10,10,13,9,,0.00,0,,34
2012-12-27,33,26,19,20,17,9,81,68,56,30.07,29.96,29.88,10,10,9,17,11,23,0.00,5,,158
2012-12-28,28,22,14,19,12,7,74,62,43,30.20,30.08,30.00,10,10,9,17,11,25,0.00,3,,328
2012-12-29,46,27,8,18,10,2,81,62,29,30.37,30.31,30.21,10,10,8,13,7,,0.00,0,,299
2012-12-30,48,34,19,20,18,12,72,50,30,30.29,30.18,30.10,10,10,10,29,12,39,0.00,0,,182
2012-12-31,33,27,21,29,24,19,93,82,56,30.18,30.05,29.97,10,4,1,15,8,24,0.00,7,Rain-Snow,42